sensor_id;sensor_type;location;lat;lon;timestamp;pressure;altitude;pressure_sealevel;temperature;humidity
46199;BME280;31928;52.104;10.030;2023-03-22T00:00:44;100086.00;;;13.51;53.19
46199;BME280;31928;52.104;10.030;2023-03-22T00:03:11;100093.53;;;13.49;53.09
46199;BME280;31928;52.104;10.030;2023-03-22T00:05:38;100087.31;;;13.49;52.79
46199;BME280;31928;52.104;10.030;2023-03-22T00:08:05;100087.00;;;13.45;52.82
46199;BME280;31928;52.104;10.030;2023-03-22T00:10:32;100081.59;;;13.45;52.49
46199;BME280;31928;52.104;10.030;2023-03-22T00:12:59;100085.34;;;13.44;52.62
46199;BME280;31928;52.104;10.030;2023-03-22T00:15:26;100076.66;;;13.42;52.90
46199;BME280;31928;52.104;10.030;2023-03-22T00:17:57;100078.31;;;13.43;52.83
46199;BME280;31928;52.104;10.030;2023-03-22T00:20:24;100074.81;;;13.43;53.10
46199;BME280;31928;52.104;10.030;2023-03-22T00:22:51;100074.22;;;13.41;53.67
46199;BME280;31928;52.104;10.030;2023-03-22T00:25:17;100075.06;;;13.41;53.01
46199;BME280;31928;52.104;10.030;2023-03-22T00:27:44;100082.06;;;13.42;53.12
46199;BME280;31928;52.104;10.030;2023-03-22T00:30:10;100071.28;;;13.42;53.34
46199;BME280;31928;52.104;10.030;2023-03-22T00:32:37;100073.97;;;13.42;53.19
46199;BME280;31928;52.104;10.030;2023-03-22T00:35:04;100071.53;;;13.41;53.76
46199;BME280;31928;52.104;10.030;2023-03-22T00:37:31;100085.81;;;13.41;53.46
46199;BME280;31928;52.104;10.030;2023-03-22T00:39:59;100071.28;;;13.42;52.96
46199;BME280;31928;52.104;10.030;2023-03-22T00:42:26;100076.66;;;13.42;53.03
46199;BME280;31928;52.104;10.030;2023-03-22T00:44:52;100077.75;;;13.41;53.28
46199;BME280;31928;52.104;10.030;2023-03-22T00:47:19;100077.50;;;13.43;53.44
46199;BME280;31928;52.104;10.030;2023-03-22T00:49:45;100067.53;;;13.43;53.16
46199;BME280;31928;52.104;10.030;2023-03-22T00:52:11;100064.59;;;13.45;53.24
46199;BME280;31928;52.104;10.030;2023-03-22T00:54:38;100060.50;;;13.42;53.68
46199;BME280;31928;52.104;10.030;2023-03-22T00:57:04;100065.44;;;13.45;53.49
46199;BME280;31928;52.104;10.030;2023-03-22T00:59:31;100053.59;;;13.46;53.29
46199;BME280;31928;52.104;10.030;2023-03-22T01:01:57;100050.34;;;13.44;53.45
46199;BME280;31928;52.104;10.030;2023-03-22T01:04:24;100052.53;;;13.47;53.02
46199;BME280;31928;52.104;10.030;2023-03-22T01:06:51;100040.97;;;13.47;53.26
46199;BME280;31928;52.104;10.030;2023-03-22T01:09:24;100037.44;;;13.46;53.02
46199;BME280;31928;52.104;10.030;2023-03-22T01:11:53;100038.03;;;13.48;52.93
46199;BME280;31928;52.104;10.030;2023-03-22T01:14:21;100032.63;;;13.48;53.07
46199;BME280;31928;52.104;10.030;2023-03-22T01:16:48;100032.63;;;13.48;52.92
46199;BME280;31928;52.104;10.030;2023-03-22T01:19:16;100032.63;;;13.48;53.02
46199;BME280;31928;52.104;10.030;2023-03-22T01:21:42;100028.91;;;13.49;53.00
46199;BME280;31928;52.104;10.030;2023-03-22T01:24:09;100021.88;;;13.48;52.78
46199;BME280;31928;52.104;10.030;2023-03-22T01:26:35;100020.22;;;13.47;53.09
46199;BME280;31928;52.104;10.030;2023-03-22T01:29:02;100018.94;;;13.50;52.77
46199;BME280;31928;52.104;10.030;2023-03-22T01:31:29;100025.63;;;13.47;52.61
46199;BME280;31928;52.104;10.030;2023-03-22T01:33:55;100011.59;;;13.45;53.52
46199;BME280;31928;52.104;10.030;2023-03-22T01:36:22;100015.88;;;13.46;52.67
46199;BME280;31928;52.104;10.030;2023-03-22T01:38:48;100023.97;;;13.46;53.07
46199;BME280;31928;52.104;10.030;2023-03-22T01:41:15;100000.81;;;13.45;52.85
46199;BME280;31928;52.104;10.030;2023-03-22T01:43:41;100013.69;;;13.43;53.14
46199;BME280;31928;52.104;10.030;2023-03-22T01:46:08;100002.91;;;13.43;52.92
46199;BME280;31928;52.104;10.030;2023-03-22T01:48:39;100001.28;;;13.42;53.16
46199;BME280;31928;52.104;10.030;2023-03-22T01:51:09;100011.25;;;13.42;53.90
46199;BME280;31928;52.104;10.030;2023-03-22T01:53:38;100006.66;;;13.42;53.48
46199;BME280;31928;52.104;10.030;2023-03-22T01:56:06;99990.50;;;13.42;53.07
46199;BME280;31928;52.104;10.030;2023-03-22T01:58:33;100004.56;;;13.44;52.79
46199;BME280;31928;52.104;10.030;2023-03-22T02:01:01;99992.16;;;13.43;52.77
46199;BME280;31928;52.104;10.030;2023-03-22T02:06:11;99994.59;;;13.45;52.83
46199;BME280;31928;52.104;10.030;2023-03-22T02:08:37;99986.50;;;13.45;53.88
46199;BME280;31928;52.104;10.030;2023-03-22T02:11:05;99987.91;;;13.47;53.27
46199;BME280;31928;52.104;10.030;2023-03-22T02:13:46;99977.13;;;13.47;53.23
46199;BME280;31928;52.104;10.030;2023-03-22T02:16:23;99984.97;;;13.49;53.71
46199;BME280;31928;52.104;10.030;2023-03-22T02:28:13;99970.22;;;13.51;53.81
46199;BME280;31928;52.104;10.030;2023-03-22T02:40:04;99967.06;;;13.54;53.46
46199;BME280;31928;52.104;10.030;2023-03-22T02:42:43;99970.81;;;13.53;53.49
46199;BME280;31928;52.104;10.030;2023-03-22T02:45:15;99963.78;;;13.52;53.85
46199;BME280;31928;52.104;10.030;2023-03-22T02:55:43;99953.81;;;13.53;53.26
46199;BME280;31928;52.104;10.030;2023-03-22T02:58:15;99962.13;;;13.51;53.62
46199;BME280;31928;52.104;10.030;2023-03-22T03:00:43;99953.00;;;13.52;53.54
46199;BME280;31928;52.104;10.030;2023-03-22T03:03:11;99969.75;;;13.54;53.37
46199;BME280;31928;52.104;10.030;2023-03-22T03:05:47;99957.91;;;13.55;53.08
46199;BME280;31928;52.104;10.030;2023-03-22T03:08:16;99974.94;;;13.44;54.56
46199;BME280;31928;52.104;10.030;2023-03-22T03:10:43;99956.28;;;13.54;53.83
46199;BME280;31928;52.104;10.030;2023-03-22T03:13:14;99965.97;;;13.55;53.47
46199;BME280;31928;52.104;10.030;2023-03-22T03:15:41;99967.63;;;13.56;53.44
46199;BME280;31928;52.104;10.030;2023-03-22T03:18:22;99961.19;;;13.57;53.40
46199;BME280;31928;52.104;10.030;2023-03-22T03:21:01;99956.59;;;13.58;53.54
46199;BME280;31928;52.104;10.030;2023-03-22T03:26:13;99963.06;;;13.57;54.12
46199;BME280;31928;52.104;10.030;2023-03-22T03:28:50;99953.09;;;13.57;54.42
46199;BME280;31928;52.104;10.030;2023-03-22T03:31:26;99956.94;;;13.61;53.36
46199;BME280;31928;52.104;10.030;2023-03-22T03:33:56;99954.00;;;13.63;53.51
46199;BME280;31928;52.104;10.030;2023-03-22T03:36:24;99950.00;;;13.65;53.17
46199;BME280;31928;52.104;10.030;2023-03-22T03:38:52;99947.31;;;13.65;53.31
46199;BME280;31928;52.104;10.030;2023-03-22T03:41:21;99948.94;;;13.66;53.50
46199;BME280;31928;52.104;10.030;2023-03-22T03:43:48;99961.38;;;13.67;53.51
46199;BME280;31928;52.104;10.030;2023-03-22T03:46:16;99950.59;;;13.67;53.34
46199;BME280;31928;52.104;10.030;2023-03-22T03:48:45;99957.59;;;13.68;53.63
46199;BME280;31928;52.104;10.030;2023-03-22T03:51:12;99944.97;;;13.69;53.50
46199;BME280;31928;52.104;10.030;2023-03-22T03:53:39;99949.28;;;13.70;53.31
46199;BME280;31928;52.104;10.030;2023-03-22T03:56:05;99949.75;;;13.67;53.88
46199;BME280;31928;52.104;10.030;2023-03-22T03:58:32;99939.81;;;13.67;53.62
46199;BME280;31928;52.104;10.030;2023-03-22T04:00:58;99946.00;;;13.68;53.90
46199;BME280;31928;52.104;10.030;2023-03-22T04:03:25;99936.88;;;13.69;53.52
46199;BME280;31928;52.104;10.030;2023-03-22T04:05:51;99939.31;;;13.70;53.20
46199;BME280;31928;52.104;10.030;2023-03-22T04:08:18;99933.94;;;13.70;53.24
46199;BME280;31928;52.104;10.030;2023-03-22T04:10:48;99946.59;;;13.70;53.45
46199;BME280;31928;52.104;10.030;2023-03-22T04:13:14;99924.22;;;13.69;53.08
46199;BME280;31928;52.104;10.030;2023-03-22T04:15:41;99936.88;;;13.69;53.42
46199;BME280;31928;52.104;10.030;2023-03-22T04:18:08;99917.53;;;13.72;53.13
46199;BME280;31928;52.104;10.030;2023-03-22T04:20:36;99923.16;;;13.70;52.96
46199;BME280;31928;52.104;10.030;2023-03-22T04:23:07;99925.84;;;13.70;53.33
46199;BME280;31928;52.104;10.030;2023-03-22T04:25:36;99916.72;;;13.71;53.29
46199;BME280;31928;52.104;10.030;2023-03-22T04:28:03;99911.78;;;13.68;53.40
46199;BME280;31928;52.104;10.030;2023-03-22T04:30:30;99918.28;;;13.67;53.68
46199;BME280;31928;52.104;10.030;2023-03-22T04:33:04;99911.78;;;13.68;53.71
46199;BME280;31928;52.104;10.030;2023-03-22T04:35:33;99910.75;;;13.69;53.22
46199;BME280;31928;52.104;10.030;2023-03-22T04:38:00;99906.19;;;13.70;53.40
46199;BME280;31928;52.104;10.030;2023-03-22T04:40:27;99900.47;;;13.66;53.62
46199;BME280;31928;52.104;10.030;2023-03-22T04:42:57;99902.91;;;13.68;53.64
46199;BME280;31928;52.104;10.030;2023-03-22T04:45:24;99893.19;;;13.67;53.35
46199;BME280;31928;52.104;10.030;2023-03-22T04:47:54;99913.94;;;13.66;53.75
46199;BME280;31928;52.104;10.030;2023-03-22T04:50:21;99907.50;;;13.67;53.08
46199;BME280;31928;52.104;10.030;2023-03-22T04:52:48;99904.81;;;13.67;53.44
46199;BME280;31928;52.104;10.030;2023-03-22T04:55:15;99915.56;;;13.67;53.50
46199;BME280;31928;52.104;10.030;2023-03-22T04:57:41;99902.34;;;13.66;53.60
46199;BME280;31928;52.104;10.030;2023-03-22T05:00:08;99900.47;;;13.66;53.61
46199;BME280;31928;52.104;10.030;2023-03-22T05:02:35;99900.47;;;13.66;53.54
46199;BME280;31928;52.104;10.030;2023-03-22T05:05:06;99902.09;;;13.67;53.48
46199;BME280;31928;52.104;10.030;2023-03-22T05:07:32;99902.34;;;13.66;53.09
46199;BME280;31928;52.104;10.030;2023-03-22T05:09:59;99900.47;;;13.66;53.42
46199;BME280;31928;52.104;10.030;2023-03-22T05:12:25;99903.16;;;13.66;53.30
46199;BME280;31928;52.104;10.030;2023-03-22T05:14:52;99901.75;;;13.64;54.01
46199;BME280;31928;52.104;10.030;2023-03-22T05:17:18;99904.22;;;13.65;54.00
46199;BME280;31928;52.104;10.030;2023-03-22T05:19:45;99901.75;;;13.64;54.59
46199;BME280;31928;52.104;10.030;2023-03-22T05:22:11;99903.41;;;13.65;53.65
46199;BME280;31928;52.104;10.030;2023-03-22T05:24:39;99907.97;;;13.64;53.98
46199;BME280;31928;52.104;10.030;2023-03-22T05:27:06;99890.75;;;13.65;54.12
46199;BME280;31928;52.104;10.030;2023-03-22T05:29:32;99901.75;;;13.64;54.19
46199;BME280;31928;52.104;10.030;2023-03-22T05:32:02;99908.53;;;13.66;54.06
46199;BME280;31928;52.104;10.030;2023-03-22T05:34:29;99897.78;;;13.66;54.20
46199;BME280;31928;52.104;10.030;2023-03-22T05:37:01;99906.66;;;13.67;54.09
46199;BME280;31928;52.104;10.030;2023-03-22T05:39:27;99914.50;;;13.68;53.84
46199;BME280;31928;52.104;10.030;2023-03-22T05:41:54;99914.28;;;13.70;53.56
46199;BME280;31928;52.104;10.030;2023-03-22T05:44:20;99912.63;;;13.69;53.84
46199;BME280;31928;52.104;10.030;2023-03-22T05:46:47;99918.56;;;13.71;53.63
46199;BME280;31928;52.104;10.030;2023-03-22T05:49:13;99909.69;;;13.70;53.63
46199;BME280;31928;52.104;10.030;2023-03-22T05:51:40;99908.63;;;13.71;53.59
46199;BME280;31928;52.104;10.030;2023-03-22T05:54:08;99912.38;;;13.70;54.11
46199;BME280;31928;52.104;10.030;2023-03-22T05:56:34;99902.19;;;13.72;53.73
46199;BME280;31928;52.104;10.030;2023-03-22T05:59:01;99906.50;;;13.73;53.58
46199;BME280;31928;52.104;10.030;2023-03-22T06:01:28;99911.63;;;13.75;53.48
46199;BME280;31928;52.104;10.030;2023-03-22T06:03:54;99904.94;;;13.77;53.67
46199;BME280;31928;52.104;10.030;2023-03-22T06:06:21;99903.88;;;13.78;53.64
46199;BME280;31928;52.104;10.030;2023-03-22T06:08:47;99895.81;;;13.78;53.60
46199;BME280;31928;52.104;10.030;2023-03-22T06:11:13;99881.28;;;13.79;53.89
46199;BME280;31928;52.104;10.030;2023-03-22T06:13:40;99885.63;;;13.80;53.51
46199;BME280;31928;52.104;10.030;2023-03-22T06:16:07;99877.28;;;13.81;53.79
46199;BME280;31928;52.104;10.030;2023-03-22T06:18:33;99880.78;;;13.82;53.50
46199;BME280;31928;52.104;10.030;2023-03-22T06:21:00;99877.84;;;13.83;53.51
46199;BME280;31928;52.104;10.030;2023-03-22T06:23:26;99879.22;;;13.86;53.73
46199;BME280;31928;52.104;10.030;2023-03-22T06:25:53;99883.47;;;13.82;53.77
46199;BME280;31928;52.104;10.030;2023-03-22T06:28:20;99882.75;;;13.86;53.83
46199;BME280;31928;52.104;10.030;2023-03-22T06:30:46;99879.22;;;13.86;54.40
46199;BME280;31928;52.104;10.030;2023-03-22T06:33:13;99887.41;;;13.91;53.50
46199;BME280;31928;52.104;10.030;2023-03-22T06:35:39;99884.44;;;13.92;53.72
46199;BME280;31928;52.104;10.030;2023-03-22T06:38:06;99887.41;;;13.91;54.54
46199;BME280;31928;52.104;10.030;2023-03-22T06:40:32;99889.66;;;13.99;53.84
46199;BME280;31928;52.104;10.030;2023-03-22T06:43:00;99896.69;;;14.00;53.99
46199;BME280;31928;52.104;10.030;2023-03-22T06:45:32;99894.09;;;14.05;53.97
46199;BME280;31928;52.104;10.030;2023-03-22T06:47:58;99886.59;;;14.07;53.81
46199;BME280;31928;52.104;10.030;2023-03-22T06:50:26;99881.78;;;14.09;53.30
46199;BME280;31928;52.104;10.030;2023-03-22T06:52:53;99882.38;;;14.11;53.83
46199;BME280;31928;52.104;10.030;2023-03-22T06:55:20;99880.22;;;14.13;53.59
46199;BME280;31928;52.104;10.030;2023-03-22T06:57:46;99885.63;;;14.13;53.94
46199;BME280;31928;52.104;10.030;2023-03-22T07:00:13;99890.44;;;14.11;54.34
46199;BME280;31928;52.104;10.030;2023-03-22T07:02:39;99883.84;;;14.18;53.51
46199;BME280;31928;52.104;10.030;2023-03-22T07:05:06;99893.22;;;14.16;54.25
46199;BME280;31928;52.104;10.030;2023-03-22T07:07:32;99885.19;;;14.21;53.40
46199;BME280;31928;52.104;10.030;2023-03-22T07:09:59;99884.97;;;14.22;53.76
46199;BME280;31928;52.104;10.030;2023-03-22T07:12:25;99887.16;;;14.25;53.13
46199;BME280;31928;52.104;10.030;2023-03-22T07:14:52;99876.63;;;14.24;53.67
46199;BME280;31928;52.104;10.030;2023-03-22T07:17:18;99871.53;;;14.27;53.72
46199;BME280;31928;52.104;10.030;2023-03-22T07:19:44;99854.88;;;14.30;52.99
46199;BME280;31928;52.104;10.030;2023-03-22T07:22:11;99855.69;;;14.31;53.19
46199;BME280;31928;52.104;10.030;2023-03-22T07:24:37;99855.69;;;14.31;53.86
46199;BME280;31928;52.104;10.030;2023-03-22T07:27:21;99847.91;;;14.34;53.76
46199;BME280;31928;52.104;10.030;2023-03-22T07:29:47;99847.66;;;14.36;53.30
46199;BME280;31928;52.104;10.030;2023-03-22T07:32:13;99853.13;;;14.41;53.54
46199;BME280;31928;52.104;10.030;2023-03-22T07:34:41;99847.72;;;14.41;54.02
46199;BME280;31928;52.104;10.030;2023-03-22T07:37:08;99860.22;;;14.46;53.95
46199;BME280;31928;52.104;10.030;2023-03-22T07:39:34;99855.63;;;14.47;54.04
46199;BME280;31928;52.104;10.030;2023-03-22T07:42:01;99852.25;;;14.56;53.74
46199;BME280;31928;52.104;10.030;2023-03-22T07:44:27;99856.06;;;14.60;53.75
46199;BME280;31928;52.104;10.030;2023-03-22T07:46:54;99844.28;;;14.66;53.93
46199;BME280;31928;52.104;10.030;2023-03-22T07:49:21;99852.44;;;14.71;54.13
46199;BME280;31928;52.104;10.030;2023-03-22T07:51:47;99861.16;;;14.78;53.97
46199;BME280;31928;52.104;10.030;2023-03-22T07:54:14;99851.53;;;14.87;53.83
46199;BME280;31928;52.104;10.030;2023-03-22T07:56:57;99852.72;;;14.96;53.87
46199;BME280;31928;52.104;10.030;2023-03-22T07:59:24;99858.50;;;15.04;53.72
46199;BME280;31928;52.104;10.030;2023-03-22T08:01:51;99858.84;;;15.13;53.90
46199;BME280;31928;52.104;10.030;2023-03-22T08:04:17;99853.59;;;15.23;53.94
46199;BME280;31928;52.104;10.030;2023-03-22T08:06:46;99857.47;;;15.32;53.75
46199;BME280;31928;52.104;10.030;2023-03-22T08:09:12;99852.09;;;15.37;53.58
46199;BME280;31928;52.104;10.030;2023-03-22T08:11:39;99858.09;;;15.44;53.87
46199;BME280;31928;52.104;10.030;2023-03-22T08:14:05;99851.16;;;15.53;53.49
46199;BME280;31928;52.104;10.030;2023-03-22T08:16:32;99852.03;;;15.58;53.29
46199;BME280;31928;52.104;10.030;2023-03-22T08:18:59;99860.47;;;15.66;53.21
46199;BME280;31928;52.104;10.030;2023-03-22T08:21:25;99854.06;;;15.72;53.28
46199;BME280;31928;52.104;10.030;2023-03-22T08:23:52;99848.16;;;15.80;52.73
46199;BME280;31928;52.104;10.030;2023-03-22T08:26:19;99842.50;;;15.82;52.75
46199;BME280;31928;52.104;10.030;2023-03-22T08:28:45;99838.47;;;15.84;53.00
46199;BME280;31928;52.104;10.030;2023-03-22T08:31:12;99837.97;;;15.92;53.00
46199;BME280;31928;52.104;10.030;2023-03-22T08:33:40;99838.00;;;15.97;52.61
46199;BME280;31928;52.104;10.030;2023-03-22T08:36:08;99838.53;;;15.94;52.04
46199;BME280;31928;52.104;10.030;2023-03-22T08:38:35;99844.03;;;16.04;51.98
46199;BME280;31928;52.104;10.030;2023-03-22T08:41:02;99833.75;;;16.06;52.11
46199;BME280;31928;52.104;10.030;2023-03-22T08:43:28;99826.19;;;16.13;52.40
46199;BME280;31928;52.104;10.030;2023-03-22T08:45:55;99825.16;;;16.19;52.36
46199;BME280;31928;52.104;10.030;2023-03-22T08:48:22;99818.72;;;16.25;52.20
46199;BME280;31928;52.104;10.030;2023-03-22T08:50:49;99824.19;;;16.30;52.00
46199;BME280;31928;52.104;10.030;2023-03-22T08:53:15;99819.34;;;16.37;52.10
46199;BME280;31928;52.104;10.030;2023-03-22T08:55:42;99804.22;;;16.41;51.24
46199;BME280;31928;52.104;10.030;2023-03-22T08:58:13;99808.31;;;16.48;51.11
46199;BME280;31928;52.104;10.030;2023-03-22T09:00:40;99806.72;;;16.57;51.60
46199;BME280;31928;52.104;10.030;2023-03-22T09:03:14;99795.34;;;16.60;51.41
46199;BME280;31928;52.104;10.030;2023-03-22T09:05:41;99797.81;;;16.67;51.15
46199;BME280;31928;52.104;10.030;2023-03-22T09:08:08;99815.16;;;16.71;50.54
46199;BME280;31928;52.104;10.030;2023-03-22T09:10:44;99792.16;;;16.78;51.04
46199;BME280;31928;52.104;10.030;2023-03-22T09:13:13;99790.53;;;16.77;50.77
46199;BME280;31928;52.104;10.030;2023-03-22T09:15:42;99787.56;;;16.83;50.67
46199;BME280;31928;52.104;10.030;2023-03-22T09:18:09;99786.22;;;16.86;50.71
46199;BME280;31928;52.104;10.030;2023-03-22T09:20:37;99782.19;;;16.88;50.20
46199;BME280;31928;52.104;10.030;2023-03-22T09:23:04;99778.66;;;16.88;49.76
46199;BME280;31928;52.104;10.030;2023-03-22T09:25:31;99766.50;;;16.95;50.66
46199;BME280;31928;52.104;10.030;2023-03-22T09:27:57;99786.53;;;16.99;50.33
46199;BME280;31928;52.104;10.030;2023-03-22T09:30:24;99778.69;;;17.03;50.78
46199;BME280;31928;52.104;10.030;2023-03-22T09:32:50;99770.84;;;17.06;50.74
46199;BME280;31928;52.104;10.030;2023-03-22T09:35:17;99784.66;;;17.10;50.24
46199;BME280;31928;52.104;10.030;2023-03-22T09:37:43;99766.22;;;17.12;50.01
46199;BME280;31928;52.104;10.030;2023-03-22T09:40:10;99768.16;;;17.16;50.04
46199;BME280;31928;52.104;10.030;2023-03-22T09:42:38;99774.66;;;17.20;50.49
46199;BME280;31928;52.104;10.030;2023-03-22T09:45:10;99774.09;;;17.23;50.35
46199;BME280;31928;52.104;10.030;2023-03-22T09:47:39;99782.25;;;17.28;50.45
46199;BME280;31928;52.104;10.030;2023-03-22T09:50:15;99774.69;;;17.30;49.67
46199;BME280;31928;52.104;10.030;2023-03-22T09:52:43;99753.03;;;17.35;49.78
46199;BME280;31928;52.104;10.030;2023-03-22T09:55:45;99740.56;;;17.34;49.10
46199;BME280;31928;52.104;10.030;2023-03-22T09:58:11;99747.06;;;17.43;49.04
46199;BME280;31928;52.104;10.030;2023-03-22T10:00:47;99738.66;;;17.49;49.64
46199;BME280;31928;52.104;10.030;2023-03-22T10:03:20;99753.56;;;17.47;47.80
46199;BME280;31928;52.104;10.030;2023-03-22T10:10:49;99738.88;;;17.63;49.25
46199;BME280;31928;52.104;10.030;2023-03-22T10:13:34;99736.19;;;17.63;48.84
46199;BME280;31928;52.104;10.030;2023-03-22T10:16:15;99743.50;;;17.67;48.87
46199;BME280;31928;52.104;10.030;2023-03-22T10:18:49;99742.41;;;17.73;48.98
46199;BME280;31928;52.104;10.030;2023-03-22T10:21:17;99739.69;;;17.78;49.25
46199;BME280;31928;52.104;10.030;2023-03-22T10:26:18;99749.44;;;17.84;47.48
46199;BME280;31928;52.104;10.030;2023-03-22T10:28:46;99744.53;;;17.91;48.82
46199;BME280;31928;52.104;10.030;2023-03-22T10:31:15;99744.00;;;17.94;48.42
46199;BME280;31928;52.104;10.030;2023-03-22T10:33:57;99749.94;;;18.01;48.46
46199;BME280;31928;52.104;10.030;2023-03-22T10:36:26;99721.44;;;18.04;47.17
46199;BME280;31928;52.104;10.030;2023-03-22T10:38:57;99740.41;;;18.13;48.31
46199;BME280;31928;52.104;10.030;2023-03-22T10:41:25;99725.22;;;18.17;46.92
46199;BME280;31928;52.104;10.030;2023-03-22T10:43:54;99742.00;;;18.29;48.69
46199;BME280;31928;52.104;10.030;2023-03-22T10:46:23;99724.63;;;18.35;47.55
46199;BME280;31928;52.104;10.030;2023-03-22T10:48:52;99720.75;;;18.46;47.65
46199;BME280;31928;52.104;10.030;2023-03-22T10:51:29;99723.97;;;18.53;47.36
46199;BME280;31928;52.104;10.030;2023-03-22T10:53:59;99719.03;;;18.65;47.18
46199;BME280;31928;52.104;10.030;2023-03-22T10:56:27;99718.97;;;18.75;47.56
46199;BME280;31928;52.104;10.030;2023-03-22T10:58:54;99722.16;;;18.82;46.35
46199;BME280;31928;52.104;10.030;2023-03-22T11:03:55;99720.94;;;19.03;44.33
46199;BME280;31928;52.104;10.030;2023-03-22T11:06:22;99721.94;;;19.17;46.54
46199;BME280;31928;52.104;10.030;2023-03-22T11:08:53;99715.63;;;19.26;46.32
46199;BME280;31928;52.104;10.030;2023-03-22T11:11:24;99712.00;;;19.35;46.84
46199;BME280;31928;52.104;10.030;2023-03-22T11:13:55;99716.03;;;19.43;47.11
46199;BME280;31928;52.104;10.030;2023-03-22T11:16:24;99718.41;;;19.49;46.99
46199;BME280;31928;52.104;10.030;2023-03-22T11:18:50;99709.09;;;19.55;46.23
46199;BME280;31928;52.104;10.030;2023-03-22T11:21:29;99692.44;;;19.62;45.85
46199;BME280;31928;52.104;10.030;2023-03-22T11:24:01;99702.72;;;19.70;47.13
46199;BME280;31928;52.104;10.030;2023-03-22T11:26:33;99696.41;;;19.74;46.10
46199;BME280;31928;52.104;10.030;2023-03-22T11:29:09;99686.59;;;19.73;42.81
46199;BME280;31928;52.104;10.030;2023-03-22T11:31:48;99708.06;;;19.75;42.00
46199;BME280;31928;52.104;10.030;2023-03-22T11:34:17;99694.22;;;19.76;43.13
46199;BME280;31928;52.104;10.030;2023-03-22T11:36:44;99690.63;;;19.81;44.82
46199;BME280;31928;52.104;10.030;2023-03-22T11:39:32;99689.28;;;19.78;43.18
46199;BME280;31928;52.104;10.030;2023-03-22T11:41:59;99685.06;;;19.67;41.44
46199;BME280;31928;52.104;10.030;2023-03-22T11:44:31;99679.13;;;19.60;40.07
46199;BME280;31928;52.104;10.030;2023-03-22T11:46:59;99679.03;;;19.70;43.40
46199;BME280;31928;52.104;10.030;2023-03-22T11:49:29;99672.56;;;19.66;42.82
46199;BME280;31928;52.104;10.030;2023-03-22T11:52:06;99675.78;;;19.68;44.00
46199;BME280;31928;52.104;10.030;2023-03-22T11:54:33;99679.63;;;19.67;42.49
46199;BME280;31928;52.104;10.030;2023-03-22T11:57:04;99687.81;;;19.62;41.91
46199;BME280;31928;52.104;10.030;2023-03-22T11:59:36;99683.44;;;19.66;43.21
46199;BME280;31928;52.104;10.030;2023-03-22T12:02:04;99687.25;;;19.65;42.77
46199;BME280;31928;52.104;10.030;2023-03-22T12:04:35;99702.47;;;19.66;42.84
46199;BME280;31928;52.104;10.030;2023-03-22T12:07:04;99689.47;;;19.63;42.26
46199;BME280;31928;52.104;10.030;2023-03-22T12:12:18;99699.75;;;19.66;43.49
46199;BME280;31928;52.104;10.030;2023-03-22T12:17:34;99689.50;;;19.58;42.32
46199;BME280;31928;52.104;10.030;2023-03-22T12:20:04;99685.97;;;19.58;43.09
46199;BME280;31928;52.104;10.030;2023-03-22T12:22:42;99692.78;;;19.55;42.95
46199;BME280;31928;52.104;10.030;2023-03-22T12:25:14;99712.94;;;19.54;42.50
46199;BME280;31928;52.104;10.030;2023-03-22T12:27:44;99687.88;;;19.57;42.83
46199;BME280;31928;52.104;10.030;2023-03-22T12:30:13;99683.78;;;19.60;43.39
46199;BME280;31928;52.104;10.030;2023-03-22T12:32:46;99676.66;;;19.64;43.80
46199;BME280;31928;52.104;10.030;2023-03-22T12:35:14;99689.38;;;19.68;43.95
46199;BME280;31928;52.104;10.030;2023-03-22T12:37:44;99683.09;;;19.73;42.76
46199;BME280;31928;52.104;10.030;2023-03-22T12:40:26;99712.13;;;19.77;43.56
46199;BME280;31928;52.104;10.030;2023-03-22T12:42:58;99692.59;;;19.75;40.82
46199;BME280;31928;52.104;10.030;2023-03-22T12:45:27;99684.94;;;19.77;41.26
46199;BME280;31928;52.104;10.030;2023-03-22T12:48:11;99700.16;;;19.78;41.42
46199;BME280;31928;52.104;10.030;2023-03-22T12:50:46;99669.19;;;19.74;39.82
46199;BME280;31928;52.104;10.030;2023-03-22T12:53:14;99683.34;;;19.76;41.48
46199;BME280;31928;52.104;10.030;2023-03-22T12:55:41;99675.44;;;19.75;42.52
46199;BME280;31928;52.104;10.030;2023-03-22T12:58:09;99684.19;;;19.72;42.28
46199;BME280;31928;52.104;10.030;2023-03-22T13:05:44;99680.72;;;19.66;41.58
46199;BME280;31928;52.104;10.030;2023-03-22T13:08:11;99675.91;;;19.58;40.70
46199;BME280;31928;52.104;10.030;2023-03-22T13:10:39;99682.38;;;19.62;42.06
46199;BME280;31928;52.104;10.030;2023-03-22T13:15:34;99674.28;;;19.57;41.67
46199;BME280;31928;52.104;10.030;2023-03-22T13:23:51;99669.56;;;19.39;39.92
46199;BME280;31928;52.104;10.030;2023-03-22T13:26:18;99664.13;;;19.39;40.67
46199;BME280;31928;52.104;10.030;2023-03-22T13:28:57;99667.94;;;19.38;42.40
46199;BME280;31928;52.104;10.030;2023-03-22T13:31:34;99652.25;;;19.30;40.83
46199;BME280;31928;52.104;10.030;2023-03-22T13:34:01;99644.69;;;19.28;40.51
46199;BME280;31928;52.104;10.030;2023-03-22T13:36:29;99641.13;;;19.27;41.80
46199;BME280;31928;52.104;10.030;2023-03-22T13:38:58;99635.69;;;19.27;41.94
46199;BME280;31928;52.104;10.030;2023-03-22T13:41:34;99633.28;;;19.26;41.95
46199;BME280;31928;52.104;10.030;2023-03-22T13:44:02;99637.06;;;19.25;41.46
46199;BME280;31928;52.104;10.030;2023-03-22T13:46:45;99639.53;;;19.26;42.39
46199;BME280;31928;52.104;10.030;2023-03-22T13:49:16;99640.03;;;19.28;43.04
46199;BME280;31928;52.104;10.030;2023-03-22T13:51:45;99635.69;;;19.27;42.69
46199;BME280;31928;52.104;10.030;2023-03-22T13:59:27;99637.56;;;19.31;42.35
46199;BME280;31928;52.104;10.030;2023-03-22T14:02:02;99632.13;;;19.31;42.21